Ana Sayfa
METAR-TAF:

METAR-TAF

Havaalanları :

Sharurah, Suudi Arabistan

Enlem: 17-28N, Boylam: 047-07E, yükseklik: 720 m

Güncel hava durumu gözlemi

Rapor saat 23:00 UTC de 20 dakika önce yapıldı.
Rüzgar güney/güneybatıdan 5 kt
Sıcaklık 19°C
Nem 37%
Basınç 1013 hPa
Görüş mesafesi 10 km veya daha fazla
1500 m altında bulut yok ve kümülonimbus yok

METAR: OESH 252300Z 21005KT CAVOK 19/04 Q1013 NOSIG

Saat: 02:20 (23:20 UTC)

Tahmin

Rapor saat 11:00 UTC de 12 saat ve 20 dakika önce yapıldı.
Ayın 25'si saat 12 UTC'den ayın 26'si saat 18 UTC'ye kadar geçerli Tahmin
Rüzgar güneydan 5 kt ve 15 kt'a kadar ani rüzgarlar
Görüş mesafesi: 7000 m
Açık gökyüzü
Geçici
ayın 25'si saat 12 UTC'den ayın 25'si saat 18 UTC'ye kadar
Görüş mesafesi: 4000 m
yaygın toz, Savrulan toz
Dönüşüyor
ayın 25'si saat 18 UTC'den ayın 25'si saat 20 UTC'ye kadar
Rüzgar değişken yönden 3 kt

TAF: OESH 251100Z 2512/2618 18005G15KT 7000 SKC TEMPO 2512/2518 4000 DU BLDU BECMG 2518/2520 VRB03KT

4.000'den fazla havaalanı için hava durumu gözlemleri ve tahminleri (METAR ve TAF raporları).

Kullanılabilir istasyonlar harita üzerinde sarı ve kırmızı noktalarla gösterilir.

İstasyonun adını görmek için fareyi noktanın üzerinde gezdirin.

Sonrasında hava gözlem ve tahminlerini görmek için tıklayın.

Haritayı değiştirmek için: yaklaştırmak için siyah artı işaretli yeşil düğmeye ve uzaklaştırmak için de eksi işaretli düğmeye hızla tıklayın; bitişik haritalar için yeşil okları kullanın.


METAR-TAF: